Time;durP1;ratioP1;P1;durP2;ratioP2;P2;SDS_P1;SDS_P2;PMS_P1;PMS_P2;Temp;Humidity;BMP_temperature;BMP_pressure;BME280_temperature;BME280_humidity;BME280_pressure;Samples;Min_cycle;Max_cycle;Signal;HPM_P1;HPM_P2
2023/07/19 00:01:10;;;;;;;8.98;6.97;;;;;;;;;;5070914;28;20024;-74
2023/07/19 00:03:36;;;;;;;9.55;5.60;;;;;;;;;;5070805;28;20035;-72
2023/07/19 00:06:01;;;;;;;7.90;6.35;;;;;;;;;;5070868;28;20359;-74
2023/07/19 00:08:27;;;;;;;5.90;5.40;;;;;;;;;;5070648;28;20487;-73
2023/07/19 00:10:53;;;;;;;10.80;6.90;;;;;;;;;;5070211;28;20431;-72
2023/07/19 00:13:18;;;;;;;8.80;6.93;;;;;;;;;;5070928;28;20036;-74
2023/07/19 00:15:44;;;;;;;9.00;6.40;;;;;;;;;;5078869;28;20028;-74
2023/07/19 00:18:09;;;;;;;12.27;8.20;;;;;;;;;;5073212;28;20047;-74
2023/07/19 00:20:34;;;;;;;8.07;7.18;;;;;;;;;;5080808;28;20351;-72
2023/07/19 00:23:00;;;;;;;7.72;6.40;;;;;;;;;;5071034;28;20047;-72
2023/07/19 00:25:25;;;;;;;6.72;5.85;;;;;;;;;;5074479;28;20047;-73
2023/07/19 00:27:50;;;;;;;7.13;6.13;;;;;;;;;;5081276;28;20334;-74
2023/07/19 00:30:16;;;;;;;7.65;6.82;;;;;;;;;;5077108;28;20055;-74
2023/07/19 00:32:41;;;;;;;7.68;6.82;;;;;;;;;;5072366;28;20035;-74
2023/07/19 00:35:07;;;;;;;6.97;6.18;;;;;;;;;;5076912;28;20031;-74
2023/07/19 00:37:32;;;;;;;8.70;5.97;;;;;;;;;;5078790;28;20036;-74
2023/07/19 00:39:58;;;;;;;6.97;6.28;;;;;;;;;;5073117;28;20360;-74
2023/07/19 00:42:23;;;;;;;8.32;6.90;;;;;;;;;;5081132;28;20511;-74
2023/07/19 00:44:49;;;;;;;8.52;6.97;;;;;;;;;;5081239;28;20110;-73
2023/07/19 00:47:15;;;;;;;7.22;5.78;;;;;;;;;;5080832;28;20423;-74
2023/07/19 00:49:42;;;;;;;7.68;6.03;;;;;;;;;;5080617;28;20028;-75
2023/07/19 00:52:08;;;;;;;10.23;7.65;;;;;;;;;;5080344;28;20131;-75
2023/07/19 00:54:33;;;;;;;9.18;6.28;;;;;;;;;;5070390;28;20089;-74
2023/07/19 00:56:59;;;;;;;8.60;6.30;;;;;;;;;;5074514;28;20397;-74
2023/07/19 00:59:26;;;;;;;10.27;7.63;;;;;;;;;;5073329;28;20054;-75
2023/07/19 01:01:51;;;;;;;8.95;7.10;;;;;;;;;;5076677;28;20046;-74
2023/07/19 01:04:17;;;;;;;9.75;8.18;;;;;;;;;;5079816;28;20463;-74
2023/07/19 01:06:43;;;;;;;8.90;7.45;;;;;;;;;;5081180;28;20087;-73
2023/07/19 01:09:09;;;;;;;11.32;9.77;;;;;;;;;;5077169;28;20371;-75
2023/07/19 01:11:35;;;;;;;10.43;7.95;;;;;;;;;;5072465;28;20036;-75
2023/07/19 01:14:00;;;;;;;7.47;6.78;;;;;;;;;;5072388;28;20031;-74
2023/07/19 01:16:25;;;;;;;8.75;7.72;;;;;;;;;;5076804;28;20043;-74
2023/07/19 01:18:51;;;;;;;7.65;6.90;;;;;;;;;;5071423;28;20336;-74
2023/07/19 01:21:16;;;;;;;6.57;5.97;;;;;;;;;;5074964;28;20020;-73
2023/07/19 01:23:42;;;;;;;6.15;5.55;;;;;;;;;;5069574;28;20358;-75
2023/07/19 01:26:07;;;;;;;6.25;5.65;;;;;;;;;;5070918;28;20081;-74
2023/07/19 01:28:32;;;;;;;9.63;7.03;;;;;;;;;;5079365;28;20024;-74
2023/07/19 01:31:01;;;;;;;11.68;6.90;;;;;;;;;;5073119;28;20031;-74
2023/07/19 01:33:27;;;;;;;9.32;8.13;;;;;;;;;;5074300;28;20933;-75
2023/07/19 01:35:52;;;;;;;9.23;6.93;;;;;;;;;;5069624;28;20047;-76
2023/07/19 01:38:20;;;;;;;8.90;6.55;;;;;;;;;;5078104;28;20044;-75
2023/07/19 01:40:45;;;;;;;8.45;6.75;;;;;;;;;;5079236;28;20036;-74
2023/07/19 01:43:10;;;;;;;10.55;8.13;;;;;;;;;;5075233;28;20035;-74
2023/07/19 01:45:36;;;;;;;11.18;8.20;;;;;;;;;;5075119;28;20126;-74
2023/07/19 01:48:01;;;;;;;8.10;6.90;;;;;;;;;;5080452;28;20027;-74
2023/07/19 01:50:26;;;;;;;7.10;6.25;;;;;;;;;;5094272;28;20109;-75
2023/07/19 01:52:52;;;;;;;9.38;8.02;;;;;;;;;;5077593;28;20024;-74
2023/07/19 01:55:17;;;;;;;11.32;8.02;;;;;;;;;;5071738;28;20439;-75
2023/07/19 01:57:43;;;;;;;9.52;8.20;;;;;;;;;;5077125;28;20446;-73
2023/07/19 02:00:08;;;;;;;13.18;8.40;;;;;;;;;;5072329;28;20031;-75
2023/07/19 02:02:33;;;;;;;13.52;8.43;;;;;;;;;;5096353;28;20031;-74
2023/07/19 02:04:59;;;;;;;9.48;6.88;;;;;;;;;;5081057;28;20024;-74
2023/07/19 02:07:24;;;;;;;7.55;5.53;;;;;;;;;;5079607;28;20121;-75
2023/07/19 02:09:50;;;;;;;7.43;5.97;;;;;;;;;;5079136;28;20333;-74
2023/07/19 02:12:15;;;;;;;9.20;6.90;;;;;;;;;;5077027;28;20024;-74
2023/07/19 02:14:40;;;;;;;12.93;7.13;;;;;;;;;;5070722;28;20024;-74
2023/07/19 02:17:06;;;;;;;8.27;7.20;;;;;;;;;;5079224;28;20110;-73
2023/07/19 02:19:31;;;;;;;6.50;5.80;;;;;;;;;;5079378;28;20036;-74
2023/07/19 02:21:56;;;;;;;10.43;5.95;;;;;;;;;;5079603;28;20032;-75
2023/07/19 02:24:22;;;;;;;6.90;6.28;;;;;;;;;;5070201;28;20035;-73
2023/07/19 02:26:47;;;;;;;5.93;5.43;;;;;;;;;;5080118;28;20040;-74
2023/07/19 02:29:12;;;;;;;6.05;5.45;;;;;;;;;;5079604;28;20035;-73
2023/07/19 02:31:38;;;;;;;6.38;5.78;;;;;;;;;;5069907;28;20024;-75
2023/07/19 02:34:09;;;;;;;7.72;5.40;;;;;;;;;;5071597;28;20028;-74
2023/07/19 02:36:34;;;;;;;5.97;5.38;;;;;;;;;;5076262;28;20164;-73
2023/07/19 02:39:03;;;;;;;7.88;5.60;;;;;;;;;;5080438;28;20114;-73
2023/07/19 02:41:31;;;;;;;6.17;5.23;;;;;;;;;;5078659;28;20027;-75
2023/07/19 02:43:57;;;;;;;6.57;5.85;;;;;;;;;;5086399;28;20472;-74
2023/07/19 02:46:22;;;;;;;5.63;5.10;;;;;;;;;;5069899;28;20028;-75
2023/07/19 02:48:47;;;;;;;5.28;4.80;;;;;;;;;;5071739;28;20028;-74
2023/07/19 02:51:13;;;;;;;6.43;5.28;;;;;;;;;;5075527;28;20459;-74
2023/07/19 02:53:38;;;;;;;6.32;5.13;;;;;;;;;;5069090;28;20020;-74
2023/07/19 02:56:04;;;;;;;7.20;5.13;;;;;;;;;;5075276;28;20069;-73
2023/07/19 02:58:29;;;;;;;6.07;5.47;;;;;;;;;;5080589;28;20637;-75
2023/07/19 03:00:54;;;;;;;5.85;5.30;;;;;;;;;;5077719;28;20099;-73
2023/07/19 03:03:20;;;;;;;6.35;4.95;;;;;;;;;;5073529;28;20050;-74
2023/07/19 03:05:45;;;;;;;5.95;5.35;;;;;;;;;;5067734;28;20016;-74
2023/07/19 03:08:11;;;;;;;5.70;5.10;;;;;;;;;;5076609;28;20356;-73
2023/07/19 03:10:37;;;;;;;5.80;5.10;;;;;;;;;;5073973;28;20023;-73
2023/07/19 03:13:03;;;;;;;5.78;5.28;;;;;;;;;;5074652;28;20039;-73
2023/07/19 03:15:32;;;;;;;5.95;5.32;;;;;;;;;;5070941;28;20024;-75
2023/07/19 03:17:58;;;;;;;7.25;5.60;;;;;;;;;;5075551;28;20081;-74
2023/07/19 03:20:24;;;;;;;6.18;5.32;;;;;;;;;;5076203;28;20059;-74
2023/07/19 03:22:49;;;;;;;7.13;6.00;;;;;;;;;;5076784;28;20024;-75
2023/07/19 03:25:14;;;;;;;6.97;6.32;;;;;;;;;;5071666;28;20031;-75
2023/07/19 03:27:40;;;;;;;6.50;5.90;;;;;;;;;;5078854;28;20043;-75
2023/07/19 03:30:06;;;;;;;6.22;5.63;;;;;;;;;;5074298;28;20028;-73
2023/07/19 03:32:32;;;;;;;6.43;5.85;;;;;;;;;;5068437;28;20107;-74
2023/07/19 03:34:57;;;;;;;6.85;5.60;;;;;;;;;;5077689;28;20099;-73
2023/07/19 03:37:22;;;;;;;8.05;5.68;;;;;;;;;;5081585;28;20032;-74
2023/07/19 03:39:48;;;;;;;6.80;5.68;;;;;;;;;;5076171;28;20024;-73
2023/07/19 03:42:13;;;;;;;8.07;6.13;;;;;;;;;;5079826;28;20035;-75
2023/07/19 03:44:38;;;;;;;6.72;5.90;;;;;;;;;;5082924;28;20032;-73
2023/07/19 03:47:04;;;;;;;6.90;6.30;;;;;;;;;;5079052;28;20063;-75
2023/07/19 03:49:29;;;;;;;6.68;6.07;;;;;;;;;;5075646;28;20093;-74
2023/07/19 03:51:54;;;;;;;5.80;5.20;;;;;;;;;;5080215;28;20115;-74
2023/07/19 03:54:20;;;;;;;9.02;6.10;;;;;;;;;;5073154;28;20034;-75
2023/07/19 03:56:45;;;;;;;7.60;6.10;;;;;;;;;;5073440;28;20028;-74
2023/07/19 03:59:11;;;;;;;7.13;5.25;;;;;;;;;;5081405;28;20028;-74
2023/07/19 04:01:36;;;;;;;7.05;5.32;;;;;;;;;;5082519;28;20459;-74
2023/07/19 04:04:03;;;;;;;9.52;5.60;;;;;;;;;;5080719;28;20035;-75
2023/07/19 04:06:28;;;;;;;11.65;6.22;;;;;;;;;;5082800;28;20035;-74
2023/07/19 04:08:54;;;;;;;8.18;6.30;;;;;;;;;;5077437;28;20044;-75
2023/07/19 04:11:19;;;;;;;7.40;6.00;;;;;;;;;;5072508;28;20470;-75
2023/07/19 04:13:44;;;;;;;6.15;5.55;;;;;;;;;;5081840;28;20124;-75
2023/07/19 04:16:10;;;;;;;7.03;6.40;;;;;;;;;;5077331;28;20016;-74
2023/07/19 04:18:35;;;;;;;6.18;5.68;;;;;;;;;;5075582;28;20032;-75
2023/07/19 04:21:00;;;;;;;6.40;5.80;;;;;;;;;;5072825;28;20016;-74
2023/07/19 04:23:26;;;;;;;6.22;5.63;;;;;;;;;;5076498;28;20455;-74
2023/07/19 04:25:51;;;;;;;7.10;5.60;;;;;;;;;;5070761;28;20032;-74
2023/07/19 04:28:17;;;;;;;7.32;6.45;;;;;;;;;;5080240;28;20032;-75
2023/07/19 04:30:44;;;;;;;7.60;6.10;;;;;;;;;;5081321;28;20038;-75
2023/07/19 04:33:09;;;;;;;6.97;5.57;;;;;;;;;;5078946;28;20020;-75
2023/07/19 04:35:34;;;;;;;8.90;6.22;;;;;;;;;;5073319;28;20093;-75
2023/07/19 04:38:00;;;;;;;6.60;5.95;;;;;;;;;;5080918;28;20024;-74
2023/07/19 04:40:25;;;;;;;7.72;6.43;;;;;;;;;;5073981;28;20099;-75
2023/07/19 04:42:50;;;;;;;7.57;5.80;;;;;;;;;;5076507;28;20093;-74
2023/07/19 04:45:16;;;;;;;7.53;5.95;;;;;;;;;;5073421;28;20020;-74
2023/07/19 04:47:41;;;;;;;6.55;5.65;;;;;;;;;;5070480;28;20023;-75
2023/07/19 04:50:08;;;;;;;7.25;6.20;;;;;;;;;;5069750;28;20581;-75
2023/07/19 04:52:34;;;;;;;7.93;7.03;;;;;;;;;;5076174;28;20111;-74
2023/07/19 04:54:59;;;;;;;7.80;6.53;;;;;;;;;;5069766;28;20181;-75
2023/07/19 04:57:24;;;;;;;8.40;5.97;;;;;;;;;;5069002;28;20040;-75
2023/07/19 04:59:50;;;;;;;8.65;6.75;;;;;;;;;;5069414;28;20039;-75
2023/07/19 05:02:15;;;;;;;6.65;6.05;;;;;;;;;;5080157;28;20024;-74
2023/07/19 05:04:40;;;;;;;7.00;6.28;;;;;;;;;;5070974;28;20024;-75
2023/07/19 05:07:06;;;;;;;7.03;5.47;;;;;;;;;;5078135;28;20028;-75
2023/07/19 05:09:31;;;;;;;6.88;6.18;;;;;;;;;;5078836;28;20039;-73
2023/07/19 05:11:56;;;;;;;7.82;5.55;;;;;;;;;;5077030;28;20399;-74
2023/07/19 05:14:23;;;;;;;6.28;5.68;;;;;;;;;;5068336;28;20561;-75
2023/07/19 05:16:49;;;;;;;6.60;6.00;;;;;;;;;;5068993;28;20051;-74
2023/07/19 05:19:14;;;;;;;8.90;5.93;;;;;;;;;;5069323;28;20116;-74
2023/07/19 05:21:39;;;;;;;8.90;6.35;;;;;;;;;;5068689;28;20028;-71
2023/07/19 05:24:05;;;;;;;7.35;5.70;;;;;;;;;;5069764;28;20410;-74
2023/07/19 05:26:30;;;;;;;8.57;6.13;;;;;;;;;;5075048;28;20588;-73
2023/07/19 05:28:55;;;;;;;7.38;5.93;;;;;;;;;;5070371;28;20032;-73
2023/07/19 05:31:21;;;;;;;7.03;6.32;;;;;;;;;;5079673;28;20028;-72
2023/07/19 05:33:46;;;;;;;9.65;6.22;;;;;;;;;;5071248;28;20040;-72
2023/07/19 05:36:12;;;;;;;8.48;6.63;;;;;;;;;;5078936;28;20028;-71
2023/07/19 05:38:37;;;;;;;7.38;6.13;;;;;;;;;;5078919;28;20426;-71
2023/07/19 05:41:03;;;;;;;7.18;5.88;;;;;;;;;;5078456;28;20047;-72
2023/07/19 05:43:29;;;;;;;6.10;5.57;;;;;;;;;;5077840;28;20034;-72
2023/07/19 05:46:01;;;;;;;7.22;6.00;;;;;;;;;;5070247;28;20416;-72
2023/07/19 05:48:26;;;;;;;6.95;6.25;;;;;;;;;;5069226;28;20024;-72
2023/07/19 05:50:52;;;;;;;6.38;5.78;;;;;;;;;;5070775;28;20359;-70
2023/07/19 05:53:17;;;;;;;8.77;6.28;;;;;;;;;;5071828;28;20050;-71
2023/07/19 05:55:42;;;;;;;5.85;5.28;;;;;;;;;;5078097;28;20439;-71
2023/07/19 05:58:08;;;;;;;7.30;5.90;;;;;;;;;;5075995;28;20119;-72
2023/07/19 06:00:33;;;;;;;7.13;5.93;;;;;;;;;;5078112;28;20093;-70
2023/07/19 06:02:59;;;;;;;7.22;5.43;;;;;;;;;;5070830;28;20028;-71
2023/07/19 06:05:24;;;;;;;7.38;5.40;;;;;;;;;;5079109;28;20028;-72
2023/07/19 06:07:50;;;;;;;6.35;5.75;;;;;;;;;;5078104;28;20468;-73
2023/07/19 06:10:16;;;;;;;7.78;5.75;;;;;;;;;;5077701;28;20486;-72
2023/07/19 06:12:42;;;;;;;5.93;5.20;;;;;;;;;;5078853;28;20020;-73
2023/07/19 06:15:08;;;;;;;5.97;5.43;;;;;;;;;;5077833;28;20046;-72
2023/07/19 06:17:33;;;;;;;6.90;5.57;;;;;;;;;;5068428;28;20469;-72
2023/07/19 06:19:59;;;;;;;5.53;4.75;;;;;;;;;;5078256;28;20020;-71
2023/07/19 06:22:24;;;;;;;7.88;5.22;;;;;;;;;;5074918;28;20123;-72
2023/07/19 06:24:50;;;;;;;5.50;4.97;;;;;;;;;;5073060;28;20027;-72
2023/07/19 06:27:16;;;;;;;6.65;5.70;;;;;;;;;;5077106;28;20023;-71
2023/07/19 06:29:42;;;;;;;5.93;5.45;;;;;;;;;;5078889;28;20028;-72
2023/07/19 06:32:08;;;;;;;5.90;5.30;;;;;;;;;;5076877;28;20016;-74
2023/07/19 06:34:33;;;;;;;7.05;5.03;;;;;;;;;;5069788;28;20498;-72
2023/07/19 06:36:58;;;;;;;6.05;5.22;;;;;;;;;;5077155;28;20041;-73
2023/07/19 06:39:24;;;;;;;6.35;4.90;;;;;;;;;;5077888;28;20496;-72
2023/07/19 06:41:49;;;;;;;7.53;5.00;;;;;;;;;;5071673;28;20412;-72
2023/07/19 06:44:14;;;;;;;6.28;4.85;;;;;;;;;;5067821;28;20350;-72
2023/07/19 06:46:40;;;;;;;5.30;4.80;;;;;;;;;;5068352;28;20024;-72
2023/07/19 06:49:05;;;;;;;7.53;5.20;;;;;;;;;;5067990;28;20034;-72
2023/07/19 06:51:30;;;;;;;5.47;4.95;;;;;;;;;;5075181;28;20024;-72
2023/07/19 06:53:56;;;;;;;6.38;4.90;;;;;;;;;;5075933;28;20442;-72
2023/07/19 06:56:21;;;;;;;5.28;4.55;;;;;;;;;;5077337;28;20036;-72
2023/07/19 06:58:46;;;;;;;5.93;4.70;;;;;;;;;;5076402;28;20032;-73
2023/07/19 07:01:12;;;;;;;4.68;4.05;;;;;;;;;;5086429;28;20359;-74
2023/07/19 07:03:37;;;;;;;5.07;4.50;;;;;;;;;;5073129;28;20111;-73
2023/07/19 07:06:03;;;;;;;4.45;4.05;;;;;;;;;;5071569;28;20118;-73
2023/07/19 07:08:28;;;;;;;4.70;4.30;;;;;;;;;;5077720;28;20040;-74
2023/07/19 07:10:54;;;;;;;5.18;4.45;;;;;;;;;;5072707;28;20450;-70
2023/07/19 07:13:19;;;;;;;4.38;3.97;;;;;;;;;;5072631;28;20032;-72
2023/07/19 07:15:45;;;;;;;5.07;4.50;;;;;;;;;;5080303;28;20401;-74
2023/07/19 07:18:10;;;;;;;5.43;4.65;;;;;;;;;;5080886;28;20032;-72
2023/07/19 07:20:35;;;;;;;6.22;4.72;;;;;;;;;;5072828;28;20106;-74
2023/07/19 07:23:01;;;;;;;5.97;4.68;;;;;;;;;;5072133;28;20019;-75
2023/07/19 07:25:26;;;;;;;7.70;4.55;;;;;;;;;;5075143;28;20028;-74
2023/07/19 07:27:52;;;;;;;5.97;4.55;;;;;;;;;;5068613;28;20020;-74
2023/07/19 07:30:19;;;;;;;5.95;5.10;;;;;;;;;;5080678;28;20023;-75
2023/07/19 07:32:45;;;;;;;8.18;4.55;;;;;;;;;;5070455;28;20030;-74
2023/07/19 07:35:10;;;;;;;6.55;4.55;;;;;;;;;;5068759;28;20024;-74
2023/07/19 07:37:36;;;;;;;6.43;4.63;;;;;;;;;;5070370;28;20039;-74
2023/07/19 07:40:01;;;;;;;4.95;4.50;;;;;;;;;;5070793;28;20073;-75
2023/07/19 07:42:27;;;;;;;6.43;4.82;;;;;;;;;;5069710;28;20020;-73
2023/07/19 07:44:52;;;;;;;5.95;4.70;;;;;;;;;;5071519;28;20040;-72
2023/07/19 07:47:17;;;;;;;4.85;4.35;;;;;;;;;;5071252;28;20036;-75
2023/07/19 07:49:43;;;;;;;7.35;4.70;;;;;;;;;;5073047;28;20043;-74
2023/07/19 07:52:11;;;;;;;6.10;4.85;;;;;;;;;;5070535;28;20081;-75
2023/07/19 07:54:37;;;;;;;6.40;4.75;;;;;;;;;;5069079;28;20031;-75
2023/07/19 07:57:03;;;;;;;5.57;4.50;;;;;;;;;;5069245;28;20032;-75
2023/07/19 07:59:28;;;;;;;5.38;4.60;;;;;;;;;;5070490;28;20027;-75
2023/07/19 08:01:53;;;;;;;6.25;4.60;;;;;;;;;;5070084;28;20031;-75
2023/07/19 08:04:19;;;;;;;5.35;4.78;;;;;;;;;;5069446;28;20028;-74
2023/07/19 08:06:44;;;;;;;5.30;4.22;;;;;;;;;;5069636;28;20042;-71
2023/07/19 08:09:09;;;;;;;5.70;4.43;;;;;;;;;;5069885;28;20328;-72
2023/07/19 08:11:35;;;;;;;5.75;4.45;;;;;;;;;;5069005;28;20028;-74
2023/07/19 08:14:00;;;;;;;6.38;3.97;;;;;;;;;;5068261;28;20043;-73
2023/07/19 08:16:26;;;;;;;4.90;4.45;;;;;;;;;;5070243;28;20035;-74
2023/07/19 08:18:52;;;;;;;5.28;4.40;;;;;;;;;;5068518;28;20038;-74
2023/07/19 08:21:17;;;;;;;9.07;4.55;;;;;;;;;;5068680;28;20028;-73
2023/07/19 08:23:43;;;;;;;5.28;4.78;;;;;;;;;;5069009;28;20694;-75
2023/07/19 08:26:08;;;;;;;4.75;4.35;;;;;;;;;;5070380;28;20133;-74
2023/07/19 08:28:33;;;;;;;6.70;4.45;;;;;;;;;;5068697;28;20078;-74
2023/07/19 08:30:59;;;;;;;5.07;4.57;;;;;;;;;;5076159;28;20032;-72
2023/07/19 08:33:24;;;;;;;4.50;4.10;;;;;;;;;;5072182;28;20481;-74
2023/07/19 08:35:50;;;;;;;4.70;4.00;;;;;;;;;;5073471;28;20077;-74
2023/07/19 08:38:16;;;;;;;6.20;5.07;;;;;;;;;;5071359;28;20047;-72
2023/07/19 08:40:44;;;;;;;5.18;4.50;;;;;;;;;;5074864;28;20454;-74
2023/07/19 08:43:10;;;;;;;4.25;3.85;;;;;;;;;;5069712;28;20059;-71
2023/07/19 08:45:37;;;;;;;6.70;4.68;;;;;;;;;;5069360;28;20392;-72
2023/07/19 08:48:03;;;;;;;4.90;4.50;;;;;;;;;;5068074;28;20324;-74
2023/07/19 08:50:28;;;;;;;4.70;4.28;;;;;;;;;;5069316;28;20032;-72
2023/07/19 08:52:54;;;;;;;5.40;4.40;;;;;;;;;;5069251;28;20024;-73
2023/07/19 08:55:20;;;;;;;6.05;4.53;;;;;;;;;;5067927;28;20161;-73
2023/07/19 08:57:46;;;;;;;6.10;4.68;;;;;;;;;;5069063;28;20048;-76
2023/07/19 09:00:15;;;;;;;4.68;4.28;;;;;;;;;;5079572;28;20047;-74
2023/07/19 09:02:40;;;;;;;6.00;4.68;;;;;;;;;;5078738;28;20417;-75
2023/07/19 09:05:07;;;;;;;6.22;4.30;;;;;;;;;;5078709;28;20111;-74
2023/07/19 09:07:33;;;;;;;6.70;4.70;;;;;;;;;;5080162;28;20463;-76
2023/07/19 09:09:59;;;;;;;8.07;5.28;;;;;;;;;;5070638;28;20058;-75
2023/07/19 09:12:24;;;;;;;4.93;4.53;;;;;;;;;;5078635;28;20043;-74
2023/07/19 09:14:49;;;;;;;6.25;4.55;;;;;;;;;;5075889;28;20020;-75
2023/07/19 09:17:15;;;;;;;6.00;4.78;;;;;;;;;;5069443;28;20350;-75
2023/07/19 09:19:43;;;;;;;4.97;4.40;;;;;;;;;;5068907;28;20039;-75
2023/07/19 09:22:09;;;;;;;6.80;5.38;;;;;;;;;;5067972;28;20092;-75
2023/07/19 09:24:35;;;;;;;7.13;4.95;;;;;;;;;;5072119;28;20455;-76
2023/07/19 09:27:00;;;;;;;6.28;4.88;;;;;;;;;;5072008;28;20028;-74
2023/07/19 09:29:32;;;;;;;6.15;4.97;;;;;;;;;;5073913;28;20492;-76
2023/07/19 09:31:58;;;;;;;5.90;5.30;;;;;;;;;;5060661;28;20470;-76
2023/07/19 09:34:28;;;;;;;5.32;4.82;;;;;;;;;;5063910;28;20352;-77
2023/07/19 09:36:53;;;;;;;5.97;4.90;;;;;;;;;;5055614;28;20048;-74
2023/07/19 09:39:24;;;;;;;5.85;4.88;;;;;;;;;;5037602;28;20313;-77
2023/07/19 09:41:50;;;;;;;5.72;5.13;;;;;;;;;;5052689;28;20145;-75
2023/07/19 09:44:16;;;;;;;6.60;5.10;;;;;;;;;;5062951;28;20441;-74
2023/07/19 09:46:43;;;;;;;5.57;4.80;;;;;;;;;;5058793;28;20446;-74
2023/07/19 09:49:09;;;;;;;5.72;5.13;;;;;;;;;;5059116;28;20063;-74
2023/07/19 09:51:35;;;;;;;6.10;5.07;;;;;;;;;;5059520;28;20404;-74
2023/07/19 09:54:03;;;;;;;8.88;5.65;;;;;;;;;;5063088;28;20024;-75
2023/07/19 09:56:28;;;;;;;7.70;5.90;;;;;;;;;;5060911;28;20055;-77
2023/07/19 09:58:55;;;;;;;5.93;5.32;;;;;;;;;;5068160;28;20569;-76
2023/07/19 10:01:22;;;;;;;5.93;4.90;;;;;;;;;;5066169;28;20467;-75
2023/07/19 10:03:47;;;;;;;5.47;4.70;;;;;;;;;;5075420;28;20028;-75
2023/07/19 10:06:13;;;;;;;5.53;4.95;;;;;;;;;;5079060;28;20027;-75
2023/07/19 10:08:39;;;;;;;5.30;4.90;;;;;;;;;;5077671;28;20047;-77
2023/07/19 10:11:04;;;;;;;5.43;4.97;;;;;;;;;;5073598;28;20463;-72
2023/07/19 10:13:30;;;;;;;7.25;5.22;;;;;;;;;;5068529;28;20024;-79
2023/07/19 10:15:57;;;;;;;10.52;5.88;;;;;;;;;;5068584;28;20096;-76
2023/07/19 10:18:23;;;;;;;6.53;5.25;;;;;;;;;;5079107;28;20470;-74
2023/07/19 10:21:03;;;;;;;5.72;5.22;;;;;;;;;;5077764;28;20038;-75
2023/07/19 10:23:34;;;;;;;7.00;5.68;;;;;;;;;;5079157;28;20020;-74
2023/07/19 10:26:04;;;;;;;6.22;4.85;;;;;;;;;;5077541;28;20296;-74
2023/07/19 10:28:29;;;;;;;15.18;5.55;;;;;;;;;;5078155;28;20016;-74
2023/07/19 10:30:55;;;;;;;5.78;5.28;;;;;;;;;;5079391;28;20040;-74
2023/07/19 10:33:26;;;;;;;6.88;5.70;;;;;;;;;;5079133;28;20820;-75
2023/07/19 10:35:55;;;;;;;5.78;5.22;;;;;;;;;;5077570;28;20080;-74
2023/07/19 10:38:25;;;;;;;6.43;5.15;;;;;;;;;;5078653;28;20071;-75
2023/07/19 10:40:53;;;;;;;6.65;5.32;;;;;;;;;;5076506;28;20439;-75
2023/07/19 10:43:19;;;;;;;5.72;5.18;;;;;;;;;;5077787;28;20028;-74
2023/07/19 10:45:46;;;;;;;8.38;5.47;;;;;;;;;;5077892;28;20131;-74
2023/07/19 10:48:11;;;;;;;6.18;5.25;;;;;;;;;;5078153;28;20032;-74
2023/07/19 10:50:38;;;;;;;5.82;5.22;;;;;;;;;;5078921;28;20035;-74
2023/07/19 10:53:04;;;;;;;6.18;5.53;;;;;;;;;;5078420;28;20510;-76
2023/07/19 10:55:30;;;;;;;8.15;5.55;;;;;;;;;;5079467;28;20050;-75
2023/07/19 10:57:56;;;;;;;7.85;6.40;;;;;;;;;;5070784;28;20439;-75
2023/07/19 11:00:21;;;;;;;9.25;6.40;;;;;;;;;;5076388;28;20382;-75
2023/07/19 11:02:46;;;;;;;6.22;5.63;;;;;;;;;;5077903;28;20111;-76
2023/07/19 11:05:13;;;;;;;15.52;7.93;;;;;;;;;;5076207;28;20574;-74
2023/07/19 11:07:38;;;;;;;6.90;6.20;;;;;;;;;;5034180;28;1274499;-76
2023/07/19 11:10:05;;;;;;;6.75;6.05;;;;;;;;;;5079595;28;20657;-78
2023/07/19 11:12:31;;;;;;;7.70;6.43;;;;;;;;;;5068797;28;20035;-76
2023/07/19 11:14:58;;;;;;;7.25;6.35;;;;;;;;;;5067306;28;20028;-76
2023/07/19 11:17:27;;;;;;;7.10;6.40;;;;;;;;;;5067481;28;20122;-76
2023/07/19 11:19:53;;;;;;;7.03;5.93;;;;;;;;;;5065915;28;20032;-76
2023/07/19 11:22:25;;;;;;;6.88;6.10;;;;;;;;;;5073394;28;20333;-78
2023/07/19 11:24:53;;;;;;;8.02;6.22;;;;;;;;;;5069405;28;20020;-77
2023/07/19 11:27:19;;;;;;;6.78;6.15;;;;;;;;;;5075539;28;20115;-76
2023/07/19 11:29:48;;;;;;;12.32;6.63;;;;;;;;;;5070791;28;20397;-75
2023/07/19 11:32:16;;;;;;;9.73;7.53;;;;;;;;;;5080348;28;20058;-77
2023/07/19 11:34:46;;;;;;;7.93;6.90;;;;;;;;;;5076359;28;20363;-76
2023/07/19 11:37:31;;;;;;;11.52;7.25;;;;;;;;;;5078282;28;20043;-75
2023/07/19 11:39:57;;;;;;;6.80;6.20;;;;;;;;;;5078581;28;20467;-75
2023/07/19 11:42:45;;;;;;;8.27;6.97;;;;;;;;;;5078889;28;20101;-73
2023/07/19 11:45:12;;;;;;;7.07;6.40;;;;;;;;;;5069917;28;20028;-74
2023/07/19 11:47:38;;;;;;;8.93;6.95;;;;;;;;;;5078484;28;20036;-73
2023/07/19 11:50:04;;;;;;;8.05;7.10;;;;;;;;;;5071955;28;20040;-74
2023/07/19 11:52:30;;;;;;;9.20;6.88;;;;;;;;;;5067158;28;20093;-75
2023/07/19 11:54:55;;;;;;;7.55;6.85;;;;;;;;;;5073390;28;20451;-75
2023/07/19 11:57:21;;;;;;;8.45;6.68;;;;;;;;;;5080696;28;20085;-76
2023/07/19 11:59:48;;;;;;;7.82;7.22;;;;;;;;;;5071074;28;20407;-76
2023/07/19 12:02:13;;;;;;;7.35;6.65;;;;;;;;;;5082700;28;20740;-77
2023/07/19 12:04:39;;;;;;;7.20;6.60;;;;;;;;;;5070614;28;20063;-75
2023/07/19 12:07:04;;;;;;;9.50;7.28;;;;;;;;;;5070427;28;20036;-74
2023/07/19 12:09:30;;;;;;;8.18;6.85;;;;;;;;;;5077668;28;20032;-75
2023/07/19 12:11:55;;;;;;;8.30;7.57;;;;;;;;;;5083706;28;20024;-76
2023/07/19 12:14:21;;;;;;;8.23;7.10;;;;;;;;;;5072014;28;20393;-76
2023/07/19 12:16:46;;;;;;;12.15;7.72;;;;;;;;;;5078116;28;20072;-77
2023/07/19 12:19:11;;;;;;;7.88;6.97;;;;;;;;;;5083091;28;20136;-76
2023/07/19 12:21:38;;;;;;;7.82;7.03;;;;;;;;;;5078875;28;20020;-76
2023/07/19 12:24:03;;;;;;;8.07;6.78;;;;;;;;;;5070279;28;20028;-75
2023/07/19 12:26:28;;;;;;;7.20;6.60;;;;;;;;;;5079070;28;20212;-73
2023/07/19 12:28:54;;;;;;;11.13;6.90;;;;;;;;;;5078569;28;20500;-75
2023/07/19 12:31:19;;;;;;;7.63;6.82;;;;;;;;;;5074456;28;20051;-74
2023/07/19 12:33:47;;;;;;;9.10;7.30;;;;;;;;;;5081442;28;20069;-76
2023/07/19 12:36:12;;;;;;;9.23;7.37;;;;;;;;;;5080800;28;20338;-74
2023/07/19 12:38:37;;;;;;;7.28;6.57;;;;;;;;;;5072111;28;20039;-74
2023/07/19 12:41:03;;;;;;;9.15;6.85;;;;;;;;;;5079424;28;20335;-75
2023/07/19 12:43:28;;;;;;;7.47;6.75;;;;;;;;;;5079900;28;20431;-74
2023/07/19 12:45:55;;;;;;;7.88;7.00;;;;;;;;;;5073699;28;20028;-75
2023/07/19 12:48:21;;;;;;;7.43;6.75;;;;;;;;;;5077927;28;20024;-78
2023/07/19 12:50:46;;;;;;;10.45;6.75;;;;;;;;;;5069459;28;20049;-75
2023/07/19 12:53:12;;;;;;;8.02;6.70;;;;;;;;;;5070690;28;20549;-75
2023/07/19 12:55:37;;;;;;;7.30;6.20;;;;;;;;;;5070667;28;20042;-74
2023/07/19 12:58:02;;;;;;;8.07;7.13;;;;;;;;;;5072965;28;20120;-74
2023/07/19 13:00:28;;;;;;;10.13;7.00;;;;;;;;;;5070101;28;20024;-74
2023/07/19 13:02:53;;;;;;;9.23;6.60;;;;;;;;;;5080761;28;20024;-74
2023/07/19 13:05:18;;;;;;;6.68;6.07;;;;;;;;;;5082342;28;20151;-75
2023/07/19 13:07:44;;;;;;;7.70;6.93;;;;;;;;;;5080718;28;20050;-76
2023/07/19 13:10:10;;;;;;;9.75;6.35;;;;;;;;;;5078545;28;20024;-75
2023/07/19 13:12:35;;;;;;;7.28;6.57;;;;;;;;;;5069985;28;20557;-75
2023/07/19 13:15:01;;;;;;;8.23;6.50;;;;;;;;;;5069538;28;21002;-74
2023/07/19 13:17:26;;;;;;;8.65;6.35;;;;;;;;;;5069339;28;20117;-74
2023/07/19 13:19:51;;;;;;;8.00;7.22;;;;;;;;;;5069374;28;20032;-75
2023/07/19 13:22:18;;;;;;;9.75;6.55;;;;;;;;;;5067479;28;20027;-74
2023/07/19 13:24:43;;;;;;;11.23;6.68;;;;;;;;;;5068759;28;20407;-75
2023/07/19 13:27:08;;;;;;;7.00;6.40;;;;;;;;;;5070450;28;20108;-75
2023/07/19 13:29:34;;;;;;;6.95;6.18;;;;;;;;;;5068452;28;21272;-75
2023/07/19 13:31:59;;;;;;;6.63;6.13;;;;;;;;;;5069642;28;20024;-75
2023/07/19 13:34:25;;;;;;;7.70;7.00;;;;;;;;;;5068218;28;20032;-75
2023/07/19 13:36:51;;;;;;;7.10;6.50;;;;;;;;;;5068808;28;20036;-73
2023/07/19 13:39:16;;;;;;;9.13;6.38;;;;;;;;;;5067574;28;20355;-75
2023/07/19 13:41:42;;;;;;;9.73;6.50;;;;;;;;;;5068060;28;20857;-75
2023/07/19 13:44:07;;;;;;;6.93;6.32;;;;;;;;;;5075348;28;20020;-74
2023/07/19 13:46:35;;;;;;;6.75;6.13;;;;;;;;;;5076055;28;20028;-74
2023/07/19 13:49:00;;;;;;;9.02;6.72;;;;;;;;;;5067953;28;20035;-74
2023/07/19 13:51:27;;;;;;;9.57;6.80;;;;;;;;;;5068046;28;20040;-75
2023/07/19 13:53:52;;;;;;;7.00;6.40;;;;;;;;;;5068309;28;20051;-75
2023/07/19 13:56:18;;;;;;;7.63;5.90;;;;;;;;;;5072355;28;20082;-75
2023/07/19 13:58:44;;;;;;;7.45;5.78;;;;;;;;;;5068183;28;20075;-75
2023/07/19 14:01:09;;;;;;;7.20;6.32;;;;;;;;;;5071873;28;20028;-75
2023/07/19 14:03:35;;;;;;;9.20;6.75;;;;;;;;;;5090963;28;20032;-76
2023/07/19 14:06:00;;;;;;;10.50;7.10;;;;;;;;;;5067995;28;20035;-74
2023/07/19 14:08:25;;;;;;;9.23;6.80;;;;;;;;;;5067571;28;20048;-75
2023/07/19 14:10:51;;;;;;;14.93;6.80;;;;;;;;;;5067653;28;20447;-74
2023/07/19 14:13:16;;;;;;;12.07;6.72;;;;;;;;;;5072438;28;20028;-75
2023/07/19 14:15:42;;;;;;;7.13;6.43;;;;;;;;;;5068017;28;20443;-74
2023/07/19 14:18:07;;;;;;;7.47;6.38;;;;;;;;;;5067837;28;20024;-75
2023/07/19 14:20:32;;;;;;;13.43;7.20;;;;;;;;;;5067969;28;20032;-75
2023/07/19 14:22:58;;;;;;;7.63;6.78;;;;;;;;;;5067407;28;20103;-75
2023/07/19 14:25:23;;;;;;;7.57;6.35;;;;;;;;;;5068226;28;20028;-74
2023/07/19 14:27:49;;;;;;;6.65;6.05;;;;;;;;;;5068350;28;20981;-74
2023/07/19 14:30:14;;;;;;;7.50;6.15;;;;;;;;;;5067544;28;20024;-74
2023/07/19 14:32:40;;;;;;;8.00;7.00;;;;;;;;;;5068390;28;20435;-75